createdAt,value
2022-11-22T00:01:20.864Z,6.60
2022-11-22T00:03:49.215Z,6.60
2022-11-22T00:06:17.606Z,6.70
2022-11-22T00:08:46.072Z,6.60
2022-11-22T00:11:14.459Z,6.70
2022-11-22T00:13:42.875Z,6.70
2022-11-22T00:16:11.343Z,6.50
2022-11-22T00:18:39.728Z,6.50
2022-11-22T00:21:09.249Z,6.60
2022-11-22T00:23:37.653Z,6.60
2022-11-22T00:26:07.780Z,6.50
2022-11-22T00:28:36.216Z,6.50
2022-11-22T00:31:04.657Z,6.40
2022-11-22T00:33:33.021Z,6.50
2022-11-22T00:36:01.364Z,6.60
2022-11-22T00:38:29.922Z,6.50
2022-11-22T00:40:58.257Z,6.50
2022-11-22T00:43:26.673Z,6.60
2022-11-22T00:45:55.138Z,6.40
2022-11-22T00:48:23.491Z,6.40
2022-11-22T00:50:51.887Z,6.30
2022-11-22T00:53:20.643Z,6.40
2022-11-22T00:55:49.440Z,6.20
2022-11-22T00:58:17.854Z,6.20
2022-11-22T01:00:46.350Z,6.10
2022-11-22T01:03:15.315Z,6.10
2022-11-22T01:05:43.702Z,6.30
2022-11-22T01:08:12.079Z,6.30
2022-11-22T01:10:40.531Z,6.20
2022-11-22T01:13:09.185Z,6.00
2022-11-22T01:15:37.716Z,5.90
2022-11-22T01:18:06.452Z,5.90
2022-11-22T01:20:34.829Z,5.90
2022-11-22T01:23:03.247Z,5.90
2022-11-22T01:25:31.653Z,5.90
2022-11-22T01:27:59.989Z,5.90
2022-11-22T01:30:28.397Z,5.90
2022-11-22T01:32:56.779Z,5.90
2022-11-22T01:35:25.125Z,6.10
2022-11-22T01:37:53.567Z,6.30
2022-11-22T01:40:22.207Z,6.00
2022-11-22T01:43:00.999Z,6.10
2022-11-22T01:45:32.108Z,6.20
2022-11-22T01:48:25.181Z,6.20
2022-11-22T01:51:03.990Z,6.00
2022-11-22T01:53:37.086Z,6.00
2022-11-22T01:56:10.052Z,6.30
2022-11-22T01:58:40.222Z,6.20
2022-11-22T02:01:09.354Z,6.10
2022-11-22T02:03:40.089Z,6.10
2022-11-22T02:06:09.442Z,6.10
2022-11-22T02:09:02.790Z,6.10
2022-11-22T02:11:34.348Z,6.30
2022-11-22T02:14:04.135Z,6.00
2022-11-22T02:16:33.011Z,6.00
2022-11-22T02:19:01.569Z,5.90
2022-11-22T02:21:30.556Z,6.00
2022-11-22T02:24:14.817Z,5.90
2022-11-22T02:26:43.585Z,6.20
2022-11-22T02:29:13.639Z,5.90
2022-11-22T02:31:48.311Z,5.80
2022-11-22T02:34:16.751Z,5.80
2022-11-22T02:36:49.811Z,6.00
2022-11-22T02:39:23.664Z,5.90
2022-11-22T02:41:52.639Z,5.90
2022-11-22T02:44:22.572Z,6.00
2022-11-22T02:46:54.111Z,6.00
2022-11-22T02:49:24.865Z,6.10
2022-11-22T02:51:54.196Z,6.20
2022-11-22T02:54:22.657Z,6.10
2022-11-22T02:56:51.267Z,6.00
2022-11-22T02:59:19.687Z,6.20
2022-11-22T03:01:49.144Z,6.20
2022-11-22T03:04:25.462Z,6.20
2022-11-22T03:06:59.226Z,6.20
2022-11-22T03:09:29.112Z,6.20
2022-11-22T03:11:57.815Z,6.20
2022-11-22T03:14:26.747Z,6.20
2022-11-22T03:16:55.150Z,6.30
2022-11-22T03:19:23.578Z,6.20
2022-11-22T03:21:52.196Z,6.10
2022-11-22T03:24:21.071Z,6.10
2022-11-22T03:26:50.876Z,6.10
2022-11-22T03:29:19.582Z,6.30
2022-11-22T03:31:48.168Z,6.20
2022-11-22T03:34:16.699Z,6.40
2022-11-22T03:36:45.327Z,6.10
2022-11-22T03:39:13.653Z,6.10
2022-11-22T03:41:42.064Z,6.10
2022-11-22T03:44:10.476Z,6.00
2022-11-22T03:46:38.850Z,6.20
2022-11-22T03:49:07.199Z,5.90
2022-11-22T03:51:35.559Z,5.70
2022-11-22T03:54:03.926Z,5.70
2022-11-22T03:56:32.475Z,5.60
2022-11-22T03:59:00.936Z,5.60
2022-11-22T04:01:29.498Z,5.70
2022-11-22T04:03:58.511Z,5.60
2022-11-22T04:06:26.948Z,5.60
2022-11-22T04:08:55.404Z,5.50
2022-11-22T04:11:23.809Z,5.50
2022-11-22T04:14:10.567Z,5.80
2022-11-22T04:16:38.883Z,5.50
2022-11-22T04:19:07.423Z,5.60
2022-11-22T04:21:35.891Z,5.80
2022-11-22T04:24:28.119Z,5.80
2022-11-22T04:26:57.198Z,5.70
2022-11-22T04:29:25.757Z,5.60
2022-11-22T04:32:12.916Z,5.60
2022-11-22T04:34:41.319Z,5.40
2022-11-22T04:37:09.638Z,5.40
2022-11-22T04:39:38.259Z,5.30
2022-11-22T04:42:25.161Z,5.40
2022-11-22T04:44:53.591Z,5.60
2022-11-22T04:47:40.379Z,5.30
2022-11-22T04:50:30.119Z,5.30
2022-11-22T04:52:58.975Z,5.30
2022-11-22T04:55:27.321Z,5.10
2022-11-22T04:57:59.737Z,5.10
2022-11-22T05:00:30.072Z,5.20
2022-11-22T05:02:58.930Z,5.30
2022-11-22T05:05:27.913Z,4.90
2022-11-22T05:07:57.088Z,5.10
2022-11-22T05:10:27.120Z,4.80
2022-11-22T05:12:56.732Z,5.00
2022-11-22T05:15:25.190Z,4.80
2022-11-22T05:17:53.625Z,5.00
2022-11-22T05:20:21.966Z,4.70
2022-11-22T05:23:08.535Z,4.70
2022-11-22T05:25:36.928Z,4.70
2022-11-22T05:28:05.396Z,5.00
2022-11-22T05:30:33.810Z,4.60
2022-11-22T05:33:02.150Z,4.60
2022-11-22T05:35:30.474Z,4.40
2022-11-22T05:37:59.507Z,4.40
2022-11-22T05:40:28.454Z,4.70
2022-11-22T05:42:57.903Z,4.50
2022-11-22T05:45:26.423Z,4.50
2022-11-22T05:47:54.776Z,4.40
2022-11-22T05:50:23.232Z,4.60
2022-11-22T05:52:51.660Z,4.70
2022-11-22T05:55:19.992Z,4.60
2022-11-22T05:57:48.366Z,4.60
2022-11-22T06:00:17.394Z,4.60
2022-11-22T06:02:45.777Z,4.90
2022-11-22T06:05:14.130Z,4.50
2022-11-22T06:07:42.594Z,4.70
2022-11-22T06:10:11.385Z,5.00
2022-11-22T06:12:39.742Z,4.80
2022-11-22T06:15:08.689Z,4.80
2022-11-22T06:17:37.012Z,4.70
2022-11-22T06:20:06.663Z,4.70
2022-11-22T06:22:35.390Z,4.70
2022-11-22T06:25:04.152Z,4.70
2022-11-22T06:27:32.488Z,4.70
2022-11-22T06:30:00.879Z,4.70
2022-11-22T06:32:29.247Z,4.70
2022-11-22T06:34:57.612Z,4.70
2022-11-22T06:37:26.021Z,4.70
2022-11-22T06:39:54.439Z,5.00
2022-11-22T06:42:22.819Z,4.60
2022-11-22T06:44:51.291Z,4.90
2022-11-22T06:47:19.857Z,4.90
2022-11-22T06:49:48.258Z,4.40
2022-11-22T06:52:16.705Z,4.60
2022-11-22T06:54:45.087Z,4.60
2022-11-22T06:57:16.280Z,4.60
2022-11-22T06:59:44.722Z,4.60
2022-11-22T07:02:13.478Z,4.60
2022-11-22T07:05:02.297Z,4.60
2022-11-22T07:07:30.182Z,5.00
2022-11-22T07:09:58.545Z,4.50
2022-11-22T07:12:27.570Z,4.90
2022-11-22T07:14:55.971Z,4.90
2022-11-22T07:17:24.391Z,4.40
2022-11-22T07:19:52.711Z,5.00
2022-11-22T07:22:21.124Z,4.70
2022-11-22T07:24:49.469Z,4.70
2022-11-22T07:27:17.828Z,4.70
2022-11-22T07:29:46.219Z,4.70
2022-11-22T07:32:14.582Z,5.00
2022-11-22T07:34:42.951Z,4.80
2022-11-22T07:37:11.301Z,4.70
2022-11-22T07:39:39.827Z,4.70
2022-11-22T07:42:08.195Z,5.00
2022-11-22T07:44:36.604Z,4.90
2022-11-22T07:47:04.978Z,5.10
2022-11-22T07:49:33.402Z,4.90
2022-11-22T07:52:02.149Z,4.70
2022-11-22T07:54:30.484Z,5.00
2022-11-22T07:56:58.815Z,5.20
2022-11-22T07:59:27.556Z,5.30
2022-11-22T08:01:56.233Z,5.00
2022-11-22T08:04:26.636Z,5.30
2022-11-22T08:06:55.057Z,5.30
2022-11-22T08:09:23.396Z,5.30
2022-11-22T08:11:51.779Z,5.30
2022-11-22T08:14:20.208Z,5.40
2022-11-22T08:16:48.584Z,5.10
2022-11-22T08:19:18.744Z,5.40
2022-11-22T08:21:49.382Z,5.40
2022-11-22T08:24:20.011Z,5.20
2022-11-22T08:26:48.367Z,5.10
2022-11-22T08:29:16.744Z,5.30
2022-11-22T08:31:45.092Z,5.30
2022-11-22T08:34:13.425Z,5.20
2022-11-22T08:36:41.783Z,5.60
2022-11-22T08:39:10.520Z,5.20
2022-11-22T08:41:38.914Z,5.30
2022-11-22T08:44:07.466Z,5.60
2022-11-22T08:46:35.828Z,5.40
2022-11-22T08:49:07.135Z,5.20
2022-11-22T08:51:37.120Z,5.40
2022-11-22T08:54:05.480Z,5.20
2022-11-22T08:56:33.822Z,5.20
2022-11-22T08:59:02.295Z,5.20
2022-11-22T09:01:30.805Z,5.20
2022-11-22T09:03:59.253Z,5.20
2022-11-22T09:09:36.362Z,5.20
2022-11-22T09:12:04.360Z,5.30
2022-11-22T09:14:32.800Z,5.60
2022-11-22T09:17:01.202Z,5.60
2022-11-22T09:19:29.960Z,5.40
2022-11-22T09:21:58.639Z,5.60
2022-11-22T09:24:26.991Z,5.40
2022-11-22T09:26:55.383Z,5.60
2022-11-22T09:29:23.722Z,5.40
2022-11-22T09:31:52.043Z,5.60
2022-11-22T09:34:20.533Z,5.60
2022-11-22T09:36:49.170Z,5.30
2022-11-22T09:39:17.503Z,5.30
2022-11-22T09:42:00.875Z,5.30
2022-11-22T09:44:38.496Z,5.30
2022-11-22T09:47:22.029Z,5.40
2022-11-22T09:49:53.520Z,5.10
2022-11-22T09:52:29.481Z,5.50
2022-11-22T09:55:03.169Z,5.30
2022-11-22T09:57:56.045Z,5.30
2022-11-22T10:00:28.486Z,5.40
2022-11-22T10:03:15.358Z,5.40
2022-11-22T10:06:06.352Z,5.40
2022-11-22T10:08:44.050Z,5.70
2022-11-22T10:11:23.810Z,5.50
2022-11-22T10:14:02.249Z,5.70
2022-11-22T10:16:42.367Z,5.50
2022-11-22T10:19:32.972Z,5.90
2022-11-22T10:22:02.190Z,5.90
2022-11-22T10:24:30.668Z,5.60
2022-11-22T10:27:01.093Z,5.60
2022-11-22T10:29:52.750Z,5.60
2022-11-22T10:32:41.139Z,5.70
2022-11-22T10:35:24.518Z,5.70
2022-11-22T10:38:14.338Z,5.70
2022-11-22T10:41:12.820Z,5.70
2022-11-22T10:44:21.521Z,5.90
2022-11-22T10:47:16.138Z,6.00
2022-11-22T10:50:13.851Z,5.70
2022-11-22T10:53:05.371Z,5.80
2022-11-22T10:55:59.948Z,6.00
2022-11-22T10:58:39.201Z,5.70
2022-11-22T11:01:21.723Z,5.80
2022-11-22T11:03:55.816Z,6.00
2022-11-22T11:07:04.748Z,5.80
2022-11-22T11:13:02.992Z,5.80
2022-11-22T11:15:48.061Z,5.80
2022-11-22T11:18:32.247Z,5.90
2022-11-22T11:21:00.612Z,5.60
2022-11-22T11:23:28.975Z,5.50
2022-11-22T11:26:14.743Z,5.60
2022-11-22T11:28:43.095Z,5.40
2022-11-22T11:31:14.460Z,5.40
2022-11-22T11:33:43.309Z,5.50
2022-11-22T11:36:24.733Z,5.50
2022-11-22T11:38:57.522Z,5.50
2022-11-22T11:41:38.825Z,5.50
2022-11-22T11:44:37.151Z,5.30
2022-11-22T11:47:06.410Z,5.50
2022-11-22T11:49:36.194Z,5.50
2022-11-22T11:52:14.692Z,5.30
2022-11-22T11:54:48.266Z,5.60
2022-11-22T11:57:36.180Z,5.30
2022-11-22T12:00:07.936Z,5.70
2022-11-22T12:02:40.341Z,5.30
2022-11-22T12:05:14.775Z,5.60
2022-11-22T12:07:46.144Z,5.60
2022-11-22T12:10:36.257Z,5.60
2022-11-22T12:13:33.120Z,5.40
2022-11-22T12:16:01.412Z,5.30
2022-11-22T12:18:48.325Z,5.50
2022-11-22T12:21:28.887Z,5.50
2022-11-22T12:27:10.142Z,5.50
2022-11-22T12:29:41.716Z,5.60
2022-11-22T12:32:30.530Z,5.90
2022-11-22T12:35:08.593Z,5.90
2022-11-22T12:38:25.980Z,5.60
2022-11-22T12:40:57.489Z,5.70
2022-11-22T12:43:38.442Z,5.50
2022-11-22T12:46:19.530Z,5.60
2022-11-22T12:48:54.258Z,5.60
2022-11-22T12:51:58.961Z,5.60
2022-11-22T12:54:53.368Z,5.60
2022-11-22T12:57:30.017Z,5.60
2022-11-22T13:00:25.602Z,5.50
2022-11-22T13:03:36.627Z,5.60
2022-11-22T13:06:08.613Z,5.60
2022-11-22T13:09:09.296Z,5.50
2022-11-22T13:11:46.047Z,5.90
2022-11-22T13:14:21.227Z,5.70
2022-11-22T13:16:51.894Z,5.90
2022-11-22T13:19:23.892Z,5.90
2022-11-22T13:22:19.314Z,5.70
2022-11-22T13:25:09.168Z,5.80
2022-11-22T13:27:49.279Z,5.90
2022-11-22T13:30:26.113Z,5.90
2022-11-22T13:32:58.918Z,5.90
2022-11-22T13:35:33.666Z,5.90
2022-11-22T13:38:06.767Z,5.80
2022-11-22T13:40:41.245Z,5.90
2022-11-22T13:43:21.484Z,6.00
2022-11-22T13:45:52.252Z,6.20
2022-11-22T13:48:41.932Z,6.10
2022-11-22T13:51:13.279Z,6.10
2022-11-22T13:53:46.856Z,6.30
2022-11-22T13:56:37.828Z,6.10
2022-11-22T13:59:15.734Z,6.20
2022-11-22T14:01:44.163Z,6.30
2022-11-22T14:04:20.395Z,6.30
2022-11-22T14:06:53.399Z,6.10
2022-11-22T14:09:54.768Z,6.30
2022-11-22T14:12:32.368Z,6.30
2022-11-22T14:15:24.132Z,5.80
2022-11-22T14:18:07.787Z,6.10
2022-11-22T14:21:07.182Z,6.30
2022-11-22T14:23:42.012Z,6.10
2022-11-22T14:26:34.773Z,6.20
2022-11-22T14:29:40.317Z,6.20
2022-11-22T14:32:24.261Z,6.10
2022-11-22T14:35:07.721Z,6.30
2022-11-22T14:37:45.141Z,6.10
2022-11-22T14:40:35.728Z,6.20
2022-11-22T14:43:13.279Z,6.20
2022-11-22T14:45:52.341Z,6.20
2022-11-22T14:48:23.396Z,6.30
2022-11-22T14:51:15.998Z,6.60
2022-11-22T14:53:56.828Z,6.20
2022-11-22T14:56:35.316Z,6.50
2022-11-22T14:59:35.396Z,6.50
2022-11-22T15:02:21.987Z,6.40
2022-11-22T15:09:13.164Z,6.30
2022-11-22T15:09:17.241Z,6.50
2022-11-22T15:11:47.306Z,6.40
2022-11-22T15:14:40.521Z,6.30
2022-11-22T15:57:39.204Z,6.20
2022-11-22T16:00:30.619Z,6.20
2022-11-22T16:03:07.359Z,6.20
2022-11-22T16:06:10.076Z,6.30
2022-11-22T16:08:31.082Z,6.30
2022-11-22T16:11:01.579Z,6.60
2022-11-22T16:13:34.582Z,6.50
2022-11-22T16:16:11.983Z,6.50
2022-11-22T16:18:44.815Z,6.50
2022-11-22T16:21:13.215Z,6.50
2022-11-22T16:23:43.381Z,6.40
2022-11-22T16:26:27.330Z,6.40
2022-11-22T16:28:57.239Z,6.40
2022-11-22T16:31:28.668Z,6.20
2022-11-22T16:33:58.419Z,6.20
2022-11-22T16:36:30.917Z,6.00
2022-11-22T16:38:59.466Z,5.60
2022-11-22T16:41:29.770Z,5.70
2022-11-22T16:44:05.460Z,5.30
2022-11-22T16:46:33.819Z,5.30
2022-11-22T16:49:02.230Z,4.80
2022-11-22T16:51:31.247Z,5.00
2022-11-22T16:54:06.564Z,4.90
2022-11-22T16:56:35.254Z,5.10
2022-11-22T16:59:06.900Z,5.10
2022-11-22T17:01:41.865Z,4.80
2022-11-22T17:04:22.510Z,4.70
2022-11-22T17:06:51.900Z,4.90
2022-11-22T17:09:20.280Z,4.60
2022-11-22T17:11:48.840Z,5.00
2022-11-22T17:14:18.949Z,4.60
2022-11-22T17:16:47.840Z,4.60
2022-11-22T17:19:51.556Z,4.80
2022-11-22T17:22:07.874Z,4.70
2022-11-22T17:24:36.542Z,4.80
2022-11-22T17:27:04.974Z,4.60
2022-11-22T17:32:21.801Z,4.40
2022-11-22T17:34:50.167Z,4.50
2022-11-22T17:37:18.575Z,4.60
2022-11-22T17:39:47.598Z,4.70
2022-11-22T17:42:18.118Z,5.10
2022-11-22T17:44:46.455Z,4.70
2022-11-22T17:47:14.798Z,4.90
2022-11-22T17:49:43.280Z,4.90
2022-11-22T17:52:11.649Z,5.10
2022-11-22T17:54:40.568Z,4.90
2022-11-22T17:57:08.968Z,5.00
2022-11-22T17:59:37.467Z,5.00
2022-11-22T18:02:05.848Z,5.00
2022-11-22T18:04:34.378Z,5.00
2022-11-22T18:07:02.881Z,5.00
2022-11-22T18:09:32.371Z,5.00
2022-11-22T18:12:01.017Z,5.10
2022-11-22T18:14:31.365Z,5.00
2022-11-22T18:17:01.166Z,5.20
2022-11-22T18:19:29.914Z,5.10
2022-11-22T18:21:58.528Z,5.20
2022-11-22T18:24:26.866Z,5.20
2022-11-22T18:26:55.251Z,5.20
2022-11-22T18:29:42.487Z,5.20
2022-11-22T18:32:11.116Z,5.60
2022-11-22T18:34:39.599Z,5.60
2022-11-22T18:37:07.931Z,5.70
2022-11-22T18:39:39.043Z,5.40
2022-11-22T18:42:16.502Z,5.60
2022-11-22T18:44:47.236Z,5.70
2022-11-22T18:47:15.605Z,5.60
2022-11-22T18:49:43.963Z,5.30
2022-11-22T18:52:15.013Z,5.30
2022-11-22T18:54:46.205Z,5.40
2022-11-22T18:57:14.606Z,5.40
2022-11-22T18:59:42.932Z,5.40
2022-11-22T19:02:11.305Z,5.40
2022-11-22T19:04:39.692Z,5.30
2022-11-22T19:07:08.074Z,5.30
2022-11-22T19:09:36.495Z,5.50
2022-11-22T19:12:05.064Z,5.50
2022-11-22T19:14:33.622Z,5.60
2022-11-22T19:17:02.072Z,5.40
2022-11-22T19:19:32.916Z,5.40
2022-11-22T19:22:02.772Z,5.60
2022-11-22T19:24:31.585Z,5.50
2022-11-22T19:27:00.090Z,5.50
2022-11-22T19:29:28.607Z,5.40
2022-11-22T19:31:57.220Z,5.60
2022-11-22T19:34:25.570Z,5.60
2022-11-22T19:36:53.888Z,5.30
2022-11-22T19:39:22.269Z,5.40
2022-11-22T19:41:50.732Z,5.50
2022-11-22T19:44:19.115Z,5.70
2022-11-22T19:46:47.455Z,5.90
2022-11-22T19:49:15.891Z,5.90
2022-11-22T19:51:44.220Z,6.00
2022-11-22T19:54:12.670Z,6.00
2022-11-22T19:56:41.044Z,5.90
2022-11-22T19:59:13.670Z,6.00
2022-11-22T20:01:42.264Z,5.90
2022-11-22T20:04:14.022Z,5.90
2022-11-22T20:06:45.924Z,6.10
2022-11-22T20:09:17.341Z,6.20
2022-11-22T20:11:46.268Z,6.30
2022-11-22T20:14:14.727Z,6.30
2022-11-22T20:16:43.673Z,6.20
2022-11-22T20:19:13.079Z,6.20
2022-11-22T20:21:42.234Z,6.40
2022-11-22T20:24:10.939Z,6.30
2022-11-22T20:26:39.391Z,5.80
2022-11-22T20:29:11.741Z,5.90
2022-11-22T20:31:41.196Z,5.90
2022-11-22T20:34:11.227Z,5.80
2022-11-22T20:36:39.605Z,5.80
2022-11-22T20:39:10.712Z,6.40
2022-11-22T20:41:40.881Z,6.20
2022-11-22T20:44:13.844Z,6.10
2022-11-22T20:46:42.884Z,6.30
2022-11-22T20:49:11.315Z,6.20
2022-11-22T20:51:43.846Z,5.80
2022-11-22T20:54:14.091Z,5.70
2022-11-22T20:56:42.412Z,5.80
2022-11-22T20:59:10.905Z,6.00
2022-11-22T21:01:39.297Z,5.60
2022-11-22T21:04:08.021Z,5.80
2022-11-22T21:06:36.631Z,6.00
2022-11-22T21:09:05.190Z,6.30
2022-11-22T21:11:33.535Z,6.80
2022-11-22T21:14:02.189Z,7.30
2022-11-22T21:16:31.242Z,8.10
2022-11-22T21:19:07.360Z,8.30
2022-11-22T21:21:39.254Z,8.70
2022-11-22T21:24:08.561Z,9.10
2022-11-22T21:26:36.884Z,9.40
2022-11-22T21:29:12.945Z,9.60
2022-11-22T21:31:44.564Z,9.80
2022-11-22T21:34:13.457Z,9.90
2022-11-22T21:36:41.783Z,10.00
2022-11-22T21:39:10.608Z,10.20
2022-11-22T21:41:40.626Z,10.40
2022-11-22T21:44:10.638Z,10.40
2022-11-22T21:46:39.225Z,10.50
2022-11-22T21:49:08.188Z,10.60
2022-11-22T21:51:36.542Z,10.60
2022-11-22T21:54:05.129Z,10.70
2022-11-22T21:56:33.707Z,10.70
2022-11-22T21:59:02.360Z,10.80
2022-11-22T22:01:31.090Z,11.00
2022-11-22T22:03:59.691Z,11.20
2022-11-22T22:06:28.112Z,11.30
2022-11-22T22:08:56.632Z,11.30
2022-11-22T22:11:25.314Z,11.00
2022-11-22T22:13:59.668Z,10.80
2022-11-22T22:16:28.168Z,10.90
2022-11-22T22:18:56.564Z,10.80
2022-11-22T22:21:24.945Z,10.80
2022-11-22T22:23:54.465Z,10.70
2022-11-22T22:26:23.134Z,10.80
2022-11-22T22:28:53.127Z,11.00
2022-11-22T22:31:23.762Z,11.00
2022-11-22T22:33:57.865Z,11.20
2022-11-22T22:36:28.055Z,11.40
2022-11-22T22:38:56.548Z,11.30
2022-11-22T22:41:24.965Z,11.00
2022-11-22T22:43:53.440Z,11.30
2022-11-22T22:46:23.855Z,11.30
2022-11-22T22:48:53.090Z,11.50
2022-11-22T22:51:27.523Z,11.70
2022-11-22T22:53:59.486Z,12.00
2022-11-22T22:56:30.347Z,12.30
2022-11-22T22:59:01.462Z,12.50
2022-11-22T23:01:32.259Z,12.60
2022-11-22T23:04:02.098Z,12.70
2022-11-22T23:06:36.972Z,12.70
2022-11-22T23:09:08.591Z,12.70
2022-11-22T23:11:56.054Z,12.70
2022-11-22T23:14:26.952Z,12.80
2022-11-22T23:16:57.917Z,13.00
2022-11-22T23:19:28.232Z,13.00
2022-11-22T23:21:57.042Z,13.10
2022-11-22T23:24:25.396Z,13.20
2022-11-22T23:26:53.854Z,13.10
2022-11-22T23:29:22.235Z,13.10
2022-11-22T23:31:50.573Z,12.90
2022-11-22T23:34:19.075Z,12.80
2022-11-22T23:36:47.439Z,12.70
2022-11-22T23:39:15.819Z,12.50
2022-11-22T23:41:45.774Z,12.30
2022-11-22T23:44:14.166Z,12.30
2022-11-22T23:46:42.545Z,12.10
2022-11-22T23:49:12.614Z,12.10
2022-11-22T23:51:41.005Z,12.20
2022-11-22T23:54:09.766Z,12.00
2022-11-22T23:56:38.263Z,11.90
2022-11-22T23:59:06.885Z,11.80
